sensor_id;sensor_type;location;lat;lon;timestamp;temperature;humidity
29431;DHT22;16404;49.902;10.074;2024-02-23T00:00:15;11.80;60.60
29431;DHT22;16404;49.902;10.074;2024-02-23T00:03:02;11.80;60.30
29431;DHT22;16404;49.902;10.074;2024-02-23T00:05:46;11.80;60.10
29431;DHT22;16404;49.902;10.074;2024-02-23T00:08:31;11.70;60.10
29431;DHT22;16404;49.902;10.074;2024-02-23T00:11:15;11.80;60.40
29431;DHT22;16404;49.902;10.074;2024-02-23T00:14:00;11.80;60.20
29431;DHT22;16404;49.902;10.074;2024-02-23T00:16:44;11.70;60.10
29431;DHT22;16404;49.902;10.074;2024-02-23T00:19:30;11.70;60.10
29431;DHT22;16404;49.902;10.074;2024-02-23T00:22:15;11.70;59.80
29431;DHT22;16404;49.902;10.074;2024-02-23T00:24:59;11.60;59.70
29431;DHT22;16404;49.902;10.074;2024-02-23T00:27:44;11.60;59.40
29431;DHT22;16404;49.902;10.074;2024-02-23T00:30:28;11.50;59.30
29431;DHT22;16404;49.902;10.074;2024-02-23T00:33:13;11.40;59.40
29431;DHT22;16404;49.902;10.074;2024-02-23T00:35:57;11.40;59.30
29431;DHT22;16404;49.902;10.074;2024-02-23T00:38:42;11.40;59.30
29431;DHT22;16404;49.902;10.074;2024-02-23T00:41:27;11.30;59.00
29431;DHT22;16404;49.902;10.074;2024-02-23T00:44:12;11.30;58.90
29431;DHT22;16404;49.902;10.074;2024-02-23T00:46:57;11.30;58.90
29431;DHT22;16404;49.902;10.074;2024-02-23T00:49:44;11.20;58.70
29431;DHT22;16404;49.902;10.074;2024-02-23T00:52:29;11.20;58.60
29431;DHT22;16404;49.902;10.074;2024-02-23T00:55:13;11.20;58.60
29431;DHT22;16404;49.902;10.074;2024-02-23T00:57:58;11.10;58.20
29431;DHT22;16404;49.902;10.074;2024-02-23T01:00:43;11.10;58.10
29431;DHT22;16404;49.902;10.074;2024-02-23T01:03:28;11.00;58.20
29431;DHT22;16404;49.902;10.074;2024-02-23T01:06:13;11.10;58.10
29431;DHT22;16404;49.902;10.074;2024-02-23T01:08:57;11.00;58.10
29431;DHT22;16404;49.902;10.074;2024-02-23T01:11:42;11.00;58.10
29431;DHT22;16404;49.902;10.074;2024-02-23T01:14:26;10.90;57.90
29431;DHT22;16404;49.902;10.074;2024-02-23T01:17:11;10.90;57.80
29431;DHT22;16404;49.902;10.074;2024-02-23T01:19:56;10.90;57.70
29431;DHT22;16404;49.902;10.074;2024-02-23T01:22:40;10.80;57.50
29431;DHT22;16404;49.902;10.074;2024-02-23T01:25:25;10.70;57.70
29431;DHT22;16404;49.902;10.074;2024-02-23T01:28:09;10.70;57.80
29431;DHT22;16404;49.902;10.074;2024-02-23T01:30:54;10.80;57.70
29431;DHT22;16404;49.902;10.074;2024-02-23T01:33:40;10.80;57.70
29431;DHT22;16404;49.902;10.074;2024-02-23T01:36:24;10.90;57.70
29431;DHT22;16404;49.902;10.074;2024-02-23T01:39:08;10.80;57.60
29431;DHT22;16404;49.902;10.074;2024-02-23T01:41:53;10.90;57.70
29431;DHT22;16404;49.902;10.074;2024-02-23T01:44:39;10.90;57.80
29431;DHT22;16404;49.902;10.074;2024-02-23T01:47:24;10.80;57.60
29431;DHT22;16404;49.902;10.074;2024-02-23T01:50:09;10.70;57.60
29431;DHT22;16404;49.902;10.074;2024-02-23T01:53:00;10.70;57.70
29431;DHT22;16404;49.902;10.074;2024-02-23T01:55:46;10.60;57.50
29431;DHT22;16404;49.902;10.074;2024-02-23T01:58:33;10.70;57.60
29431;DHT22;16404;49.902;10.074;2024-02-23T02:01:18;10.60;57.70
29431;DHT22;16404;49.902;10.074;2024-02-23T02:04:03;10.60;57.70
29431;DHT22;16404;49.902;10.074;2024-02-23T02:06:48;10.50;57.70
29431;DHT22;16404;49.902;10.074;2024-02-23T02:09:33;10.40;57.70
29431;DHT22;16404;49.902;10.074;2024-02-23T02:12:27;10.30;57.60
29431;DHT22;16404;49.902;10.074;2024-02-23T02:15:12;10.30;57.70
29431;DHT22;16404;49.902;10.074;2024-02-23T02:17:56;10.30;57.60
29431;DHT22;16404;49.902;10.074;2024-02-23T02:20:51;10.30;57.60
29431;DHT22;16404;49.902;10.074;2024-02-23T02:23:35;10.30;57.80
29431;DHT22;16404;49.902;10.074;2024-02-23T02:26:21;10.20;57.70
29431;DHT22;16404;49.902;10.074;2024-02-23T02:29:05;10.20;57.70
29431;DHT22;16404;49.902;10.074;2024-02-23T02:31:50;10.20;57.70
29431;DHT22;16404;49.902;10.074;2024-02-23T02:34:35;10.20;57.60
29431;DHT22;16404;49.902;10.074;2024-02-23T02:37:19;10.10;57.50
29431;DHT22;16404;49.902;10.074;2024-02-23T02:40:04;10.10;57.60
29431;DHT22;16404;49.902;10.074;2024-02-23T02:42:49;10.10;57.60
29431;DHT22;16404;49.902;10.074;2024-02-23T02:45:33;10.20;57.50
29431;DHT22;16404;49.902;10.074;2024-02-23T02:48:18;10.20;57.30
29431;DHT22;16404;49.902;10.074;2024-02-23T02:51:02;10.20;57.30
29431;DHT22;16404;49.902;10.074;2024-02-23T02:53:47;10.10;57.30
29431;DHT22;16404;49.902;10.074;2024-02-23T02:56:31;10.10;57.60
29431;DHT22;16404;49.902;10.074;2024-02-23T02:59:16;10.20;57.70
29431;DHT22;16404;49.902;10.074;2024-02-23T03:02:02;10.10;57.60
29431;DHT22;16404;49.902;10.074;2024-02-23T03:04:48;10.10;57.80
29431;DHT22;16404;49.902;10.074;2024-02-23T03:07:33;10.10;57.70
29431;DHT22;16404;49.902;10.074;2024-02-23T03:10:17;10.10;57.60
29431;DHT22;16404;49.902;10.074;2024-02-23T03:13:02;10.00;57.50
29431;DHT22;16404;49.902;10.074;2024-02-23T03:15:46;10.00;57.70
29431;DHT22;16404;49.902;10.074;2024-02-23T03:18:31;9.90;57.80
29431;DHT22;16404;49.902;10.074;2024-02-23T03:21:15;9.90;57.90
29431;DHT22;16404;49.902;10.074;2024-02-23T03:24:00;9.90;58.00
29431;DHT22;16404;49.902;10.074;2024-02-23T03:26:44;9.90;58.10
29431;DHT22;16404;49.902;10.074;2024-02-23T03:29:29;9.80;58.20
29431;DHT22;16404;49.902;10.074;2024-02-23T03:32:14;9.80;58.30
29431;DHT22;16404;49.902;10.074;2024-02-23T03:34:58;9.70;58.40
29431;DHT22;16404;49.902;10.074;2024-02-23T03:37:43;9.70;58.50
29431;DHT22;16404;49.902;10.074;2024-02-23T03:40:27;9.70;58.50
29431;DHT22;16404;49.902;10.074;2024-02-23T03:43:12;9.70;58.50
29431;DHT22;16404;49.902;10.074;2024-02-23T03:45:56;9.70;58.40
29431;DHT22;16404;49.902;10.074;2024-02-23T03:48:41;9.70;58.40
29431;DHT22;16404;49.902;10.074;2024-02-23T03:51:26;9.60;58.50
29431;DHT22;16404;49.902;10.074;2024-02-23T03:54:10;9.60;58.40
29431;DHT22;16404;49.902;10.074;2024-02-23T03:56:55;9.50;58.40
29431;DHT22;16404;49.902;10.074;2024-02-23T03:59:39;9.50;58.40
29431;DHT22;16404;49.902;10.074;2024-02-23T04:02:25;9.40;58.30
29431;DHT22;16404;49.902;10.074;2024-02-23T04:05:09;9.30;58.30
29431;DHT22;16404;49.902;10.074;2024-02-23T04:07:54;9.30;58.30
29431;DHT22;16404;49.902;10.074;2024-02-23T04:10:39;9.30;58.10
29431;DHT22;16404;49.902;10.074;2024-02-23T04:13:23;9.30;58.10
29431;DHT22;16404;49.902;10.074;2024-02-23T04:16:08;9.30;58.20
29431;DHT22;16404;49.902;10.074;2024-02-23T04:18:53;9.30;58.10
29431;DHT22;16404;49.902;10.074;2024-02-23T04:21:38;9.20;58.00
29431;DHT22;16404;49.902;10.074;2024-02-23T04:24:22;9.20;58.10
29431;DHT22;16404;49.902;10.074;2024-02-23T04:27:07;9.20;58.10
29431;DHT22;16404;49.902;10.074;2024-02-23T04:29:52;9.20;58.00
29431;DHT22;16404;49.902;10.074;2024-02-23T04:32:36;9.20;58.10
29431;DHT22;16404;49.902;10.074;2024-02-23T04:35:21;9.20;58.10
29431;DHT22;16404;49.902;10.074;2024-02-23T04:38:05;9.20;58.10
29431;DHT22;16404;49.902;10.074;2024-02-23T04:40:50;9.10;58.10
29431;DHT22;16404;49.902;10.074;2024-02-23T04:43:35;9.10;58.20
29431;DHT22;16404;49.902;10.074;2024-02-23T04:46:19;9.10;58.10
29431;DHT22;16404;49.902;10.074;2024-02-23T04:49:04;9.10;58.10
29431;DHT22;16404;49.902;10.074;2024-02-23T04:51:48;9.10;58.20
29431;DHT22;16404;49.902;10.074;2024-02-23T04:54:33;9.10;58.40
29431;DHT22;16404;49.902;10.074;2024-02-23T04:57:18;9.10;58.40
29431;DHT22;16404;49.902;10.074;2024-02-23T05:00:03;9.20;58.30
29431;DHT22;16404;49.902;10.074;2024-02-23T05:02:47;9.10;58.20
29431;DHT22;16404;49.902;10.074;2024-02-23T05:05:32;9.10;58.40
29431;DHT22;16404;49.902;10.074;2024-02-23T05:08:16;9.10;58.50
29431;DHT22;16404;49.902;10.074;2024-02-23T05:11:01;9.10;58.50
29431;DHT22;16404;49.902;10.074;2024-02-23T05:13:46;9.20;58.40
29431;DHT22;16404;49.902;10.074;2024-02-23T05:16:30;9.10;58.40
29431;DHT22;16404;49.902;10.074;2024-02-23T05:19:15;9.10;58.50
29431;DHT22;16404;49.902;10.074;2024-02-23T05:22:00;9.20;58.50
29431;DHT22;16404;49.902;10.074;2024-02-23T05:24:44;9.20;58.50
29431;DHT22;16404;49.902;10.074;2024-02-23T05:27:29;9.30;58.50
29431;DHT22;16404;49.902;10.074;2024-02-23T05:30:14;9.40;58.40
29431;DHT22;16404;49.902;10.074;2024-02-23T05:32:58;9.40;58.10
29431;DHT22;16404;49.902;10.074;2024-02-23T05:35:43;9.40;58.20
29431;DHT22;16404;49.902;10.074;2024-02-23T05:38:29;9.30;58.30
29431;DHT22;16404;49.902;10.074;2024-02-23T05:41:14;9.30;58.40
29431;DHT22;16404;49.902;10.074;2024-02-23T05:44:00;9.30;58.30
29431;DHT22;16404;49.902;10.074;2024-02-23T05:46:44;9.40;58.40
29431;DHT22;16404;49.902;10.074;2024-02-23T05:49:29;9.30;58.40
29431;DHT22;16404;49.902;10.074;2024-02-23T05:52:14;9.30;58.50
29431;DHT22;16404;49.902;10.074;2024-02-23T05:54:59;9.30;58.50
29431;DHT22;16404;49.902;10.074;2024-02-23T05:57:44;9.30;58.60
29431;DHT22;16404;49.902;10.074;2024-02-23T06:00:29;9.20;58.50
29431;DHT22;16404;49.902;10.074;2024-02-23T06:03:15;9.10;58.60
29431;DHT22;16404;49.902;10.074;2024-02-23T06:05:59;9.20;58.70
29431;DHT22;16404;49.902;10.074;2024-02-23T06:08:44;9.20;58.50
29431;DHT22;16404;49.902;10.074;2024-02-23T06:11:29;9.30;58.50
29431;DHT22;16404;49.902;10.074;2024-02-23T06:14:13;9.30;58.40
29431;DHT22;16404;49.902;10.074;2024-02-23T06:16:58;9.30;58.30
29431;DHT22;16404;49.902;10.074;2024-02-23T06:19:42;9.40;58.20
29431;DHT22;16404;49.902;10.074;2024-02-23T06:22:27;9.40;57.90
29431;DHT22;16404;49.902;10.074;2024-02-23T06:25:12;9.40;57.90
29431;DHT22;16404;49.902;10.074;2024-02-23T06:27:56;9.40;57.80
29431;DHT22;16404;49.902;10.074;2024-02-23T06:30:41;9.40;57.80
29431;DHT22;16404;49.902;10.074;2024-02-23T06:33:25;9.50;58.00
29431;DHT22;16404;49.902;10.074;2024-02-23T06:36:10;9.40;58.10
29431;DHT22;16404;49.902;10.074;2024-02-23T06:38:54;9.40;58.10
29431;DHT22;16404;49.902;10.074;2024-02-23T06:41:39;9.50;58.10
29431;DHT22;16404;49.902;10.074;2024-02-23T06:44:23;9.50;58.10
29431;DHT22;16404;49.902;10.074;2024-02-23T06:47:08;9.40;58.00
29431;DHT22;16404;49.902;10.074;2024-02-23T06:49:52;9.40;57.90
29431;DHT22;16404;49.902;10.074;2024-02-23T06:52:37;9.30;57.90
29431;DHT22;16404;49.902;10.074;2024-02-23T06:55:22;9.30;58.50
29431;DHT22;16404;49.902;10.074;2024-02-23T06:58:06;9.30;58.20
29431;DHT22;16404;49.902;10.074;2024-02-23T07:00:51;9.20;58.40
29431;DHT22;16404;49.902;10.074;2024-02-23T07:03:35;9.10;58.50
29431;DHT22;16404;49.902;10.074;2024-02-23T07:06:21;9.10;58.50
29431;DHT22;16404;49.902;10.074;2024-02-23T07:09:05;9.10;58.60
29431;DHT22;16404;49.902;10.074;2024-02-23T07:11:50;9.10;58.60
29431;DHT22;16404;49.902;10.074;2024-02-23T07:14:34;9.00;58.70
29431;DHT22;16404;49.902;10.074;2024-02-23T07:17:19;9.00;59.00
29431;DHT22;16404;49.902;10.074;2024-02-23T07:20:04;9.00;59.30
29431;DHT22;16404;49.902;10.074;2024-02-23T07:22:50;9.00;59.60
29431;DHT22;16404;49.902;10.074;2024-02-23T07:25:34;9.00;59.80
29431;DHT22;16404;49.902;10.074;2024-02-23T07:28:19;9.00;59.80
29431;DHT22;16404;49.902;10.074;2024-02-23T07:31:04;9.00;59.90
29431;DHT22;16404;49.902;10.074;2024-02-23T07:33:49;8.90;60.00
29431;DHT22;16404;49.902;10.074;2024-02-23T07:36:33;9.00;60.20
29431;DHT22;16404;49.902;10.074;2024-02-23T07:39:18;8.90;60.30
29431;DHT22;16404;49.902;10.074;2024-02-23T07:42:03;9.00;60.80
29431;DHT22;16404;49.902;10.074;2024-02-23T07:44:47;8.90;60.90
29431;DHT22;16404;49.902;10.074;2024-02-23T07:47:32;9.00;61.00
29431;DHT22;16404;49.902;10.074;2024-02-23T07:50:17;9.10;60.90
29431;DHT22;16404;49.902;10.074;2024-02-23T07:53:03;9.20;60.90
29431;DHT22;16404;49.902;10.074;2024-02-23T07:55:48;9.20;61.00
29431;DHT22;16404;49.902;10.074;2024-02-23T07:58:32;9.40;60.90
29431;DHT22;16404;49.902;10.074;2024-02-23T08:01:17;9.40;60.40
29431;DHT22;16404;49.902;10.074;2024-02-23T08:04:02;9.50;60.50
29431;DHT22;16404;49.902;10.074;2024-02-23T08:06:47;9.60;60.60
29431;DHT22;16404;49.902;10.074;2024-02-23T08:09:32;9.60;60.50
29431;DHT22;16404;49.902;10.074;2024-02-23T08:12:17;9.60;60.50
29431;DHT22;16404;49.902;10.074;2024-02-23T08:15:02;9.70;60.60
29431;DHT22;16404;49.902;10.074;2024-02-23T08:17:46;9.60;60.50
29431;DHT22;16404;49.902;10.074;2024-02-23T08:20:31;9.70;60.60
29431;DHT22;16404;49.902;10.074;2024-02-23T08:23:16;9.80;60.60
29431;DHT22;16404;49.902;10.074;2024-02-23T08:26:00;9.90;60.50
29431;DHT22;16404;49.902;10.074;2024-02-23T08:28:45;9.90;60.30
29431;DHT22;16404;49.902;10.074;2024-02-23T08:31:29;10.00;60.90
29431;DHT22;16404;49.902;10.074;2024-02-23T08:34:14;10.10;59.90
29431;DHT22;16404;49.902;10.074;2024-02-23T08:36:59;10.10;59.70
29431;DHT22;16404;49.902;10.074;2024-02-23T08:39:44;10.30;59.50
29431;DHT22;16404;49.902;10.074;2024-02-23T08:42:29;10.40;59.10
29431;DHT22;16404;49.902;10.074;2024-02-23T08:45:13;10.40;58.80
29431;DHT22;16404;49.902;10.074;2024-02-23T08:47:58;10.50;58.50
29431;DHT22;16404;49.902;10.074;2024-02-23T08:50:42;10.60;58.10
29431;DHT22;16404;49.902;10.074;2024-02-23T08:53:27;10.60;57.80
29431;DHT22;16404;49.902;10.074;2024-02-23T08:56:12;10.60;57.60
29431;DHT22;16404;49.902;10.074;2024-02-23T08:58:57;10.60;57.40
29431;DHT22;16404;49.902;10.074;2024-02-23T09:01:42;10.60;57.60
29431;DHT22;16404;49.902;10.074;2024-02-23T09:04:28;10.60;57.30
29431;DHT22;16404;49.902;10.074;2024-02-23T09:07:13;10.50;56.90
29431;DHT22;16404;49.902;10.074;2024-02-23T09:09:57;10.50;56.70
29431;DHT22;16404;49.902;10.074;2024-02-23T09:12:42;10.50;56.60
29431;DHT22;16404;49.902;10.074;2024-02-23T09:15:27;10.50;56.30
29431;DHT22;16404;49.902;10.074;2024-02-23T09:18:11;10.60;56.20
29431;DHT22;16404;49.902;10.074;2024-02-23T09:20:56;10.70;55.90
29431;DHT22;16404;49.902;10.074;2024-02-23T09:23:41;10.70;55.60
29431;DHT22;16404;49.902;10.074;2024-02-23T09:26:25;10.70;55.50
29431;DHT22;16404;49.902;10.074;2024-02-23T09:29:10;10.80;55.50
29431;DHT22;16404;49.902;10.074;2024-02-23T09:31:55;10.90;55.00
29431;DHT22;16404;49.902;10.074;2024-02-23T09:34:39;11.00;54.70
29431;DHT22;16404;49.902;10.074;2024-02-23T09:37:24;11.00;54.40
29431;DHT22;16404;49.902;10.074;2024-02-23T09:40:09;10.90;54.30
29431;DHT22;16404;49.902;10.074;2024-02-23T09:42:58;10.90;54.30
29431;DHT22;16404;49.902;10.074;2024-02-23T09:45:44;11.00;54.00
29431;DHT22;16404;49.902;10.074;2024-02-23T09:48:29;11.10;53.90
29431;DHT22;16404;49.902;10.074;2024-02-23T09:51:18;11.10;53.70
29431;DHT22;16404;49.902;10.074;2024-02-23T09:54:03;11.20;53.60
29431;DHT22;16404;49.902;10.074;2024-02-23T09:56:47;11.30;53.10
29431;DHT22;16404;49.902;10.074;2024-02-23T09:59:33;11.40;53.00
29431;DHT22;16404;49.902;10.074;2024-02-23T10:02:18;11.40;52.80
29431;DHT22;16404;49.902;10.074;2024-02-23T10:05:03;11.40;52.80
29431;DHT22;16404;49.902;10.074;2024-02-23T10:07:48;11.30;52.60
29431;DHT22;16404;49.902;10.074;2024-02-23T10:10:33;11.30;52.80
29431;DHT22;16404;49.902;10.074;2024-02-23T10:13:29;11.30;52.70
29431;DHT22;16404;49.902;10.074;2024-02-23T10:16:13;11.30;52.40
29431;DHT22;16404;49.902;10.074;2024-02-23T10:18:58;11.40;52.80
29431;DHT22;16404;49.902;10.074;2024-02-23T10:21:42;11.40;52.70
29431;DHT22;16404;49.902;10.074;2024-02-23T10:24:27;11.50;52.70
29431;DHT22;16404;49.902;10.074;2024-02-23T10:27:12;11.40;52.10
29431;DHT22;16404;49.902;10.074;2024-02-23T10:29:57;11.40;51.80
29431;DHT22;16404;49.902;10.074;2024-02-23T10:32:42;11.40;51.90
29431;DHT22;16404;49.902;10.074;2024-02-23T10:35:26;11.40;52.20
29431;DHT22;16404;49.902;10.074;2024-02-23T10:38:11;11.50;52.20
29431;DHT22;16404;49.902;10.074;2024-02-23T10:40:56;11.60;51.80
29431;DHT22;16404;49.902;10.074;2024-02-23T10:43:44;11.80;51.80
29431;DHT22;16404;49.902;10.074;2024-02-23T10:46:33;11.80;51.20
29431;DHT22;16404;49.902;10.074;2024-02-23T10:49:17;11.90;50.90
29431;DHT22;16404;49.902;10.074;2024-02-23T10:52:04;12.00;50.60
29431;DHT22;16404;49.902;10.074;2024-02-23T10:54:50;12.00;50.60
29431;DHT22;16404;49.902;10.074;2024-02-23T10:57:36;12.00;50.50
29431;DHT22;16404;49.902;10.074;2024-02-23T11:00:21;12.10;50.60
29431;DHT22;16404;49.902;10.074;2024-02-23T11:03:07;12.30;50.90
29431;DHT22;16404;49.902;10.074;2024-02-23T11:05:53;12.40;50.80
29431;DHT22;16404;49.902;10.074;2024-02-23T11:08:38;12.50;50.40
29431;DHT22;16404;49.902;10.074;2024-02-23T11:11:23;12.60;50.10
29431;DHT22;16404;49.902;10.074;2024-02-23T11:14:08;12.70;50.00
29431;DHT22;16404;49.902;10.074;2024-02-23T11:16:55;12.70;49.80
29431;DHT22;16404;49.902;10.074;2024-02-23T11:19:40;12.80;49.50
29431;DHT22;16404;49.902;10.074;2024-02-23T11:22:30;12.80;49.10
29431;DHT22;16404;49.902;10.074;2024-02-23T11:25:17;12.70;49.00
29431;DHT22;16404;49.902;10.074;2024-02-23T11:28:01;12.70;49.30
29431;DHT22;16404;49.902;10.074;2024-02-23T11:30:46;12.80;49.40
29431;DHT22;16404;49.902;10.074;2024-02-23T11:33:36;12.90;49.10
29431;DHT22;16404;49.902;10.074;2024-02-23T11:39:13;12.90;48.40
29431;DHT22;16404;49.902;10.074;2024-02-23T11:41:58;12.90;48.20
29431;DHT22;16404;49.902;10.074;2024-02-23T11:44:43;12.90;48.50
29431;DHT22;16404;49.902;10.074;2024-02-23T11:47:28;12.90;48.30
29431;DHT22;16404;49.902;10.074;2024-02-23T11:50:13;13.00;48.50
29431;DHT22;16404;49.902;10.074;2024-02-23T11:52:59;13.00;48.70
29431;DHT22;16404;49.902;10.074;2024-02-23T11:55:44;13.10;48.10
29431;DHT22;16404;49.902;10.074;2024-02-23T11:58:29;13.10;48.10
29431;DHT22;16404;49.902;10.074;2024-02-23T12:01:13;13.10;48.10
29431;DHT22;16404;49.902;10.074;2024-02-23T12:03:58;13.20;48.00
29431;DHT22;16404;49.902;10.074;2024-02-23T12:06:42;13.30;47.70
29431;DHT22;16404;49.902;10.074;2024-02-23T12:09:27;13.30;47.80
29431;DHT22;16404;49.902;10.074;2024-02-23T12:12:12;13.30;47.90
29431;DHT22;16404;49.902;10.074;2024-02-23T12:14:56;13.30;47.80
29431;DHT22;16404;49.902;10.074;2024-02-23T12:17:50;13.30;47.50
29431;DHT22;16404;49.902;10.074;2024-02-23T12:20:35;13.30;47.80
29431;DHT22;16404;49.902;10.074;2024-02-23T12:23:20;13.40;47.80
29431;DHT22;16404;49.902;10.074;2024-02-23T12:26:04;13.50;48.00
29431;DHT22;16404;49.902;10.074;2024-02-23T12:28:49;13.50;47.90
29431;DHT22;16404;49.902;10.074;2024-02-23T12:31:34;13.50;48.00
29431;DHT22;16404;49.902;10.074;2024-02-23T12:34:18;13.50;48.00
29431;DHT22;16404;49.902;10.074;2024-02-23T12:37:05;13.40;48.10
29431;DHT22;16404;49.902;10.074;2024-02-23T12:39:50;13.50;48.20
29431;DHT22;16404;49.902;10.074;2024-02-23T12:42:34;13.50;48.10
29431;DHT22;16404;49.902;10.074;2024-02-23T12:45:19;13.40;48.00
29431;DHT22;16404;49.902;10.074;2024-02-23T12:48:04;13.40;48.10
29431;DHT22;16404;49.902;10.074;2024-02-23T12:50:49;13.40;48.10
29431;DHT22;16404;49.902;10.074;2024-02-23T12:53:38;13.40;48.00
29431;DHT22;16404;49.902;10.074;2024-02-23T12:56:23;13.40;47.90
29431;DHT22;16404;49.902;10.074;2024-02-23T12:59:09;13.40;47.90
29431;DHT22;16404;49.902;10.074;2024-02-23T13:01:54;13.40;47.70
29431;DHT22;16404;49.902;10.074;2024-02-23T13:04:38;13.40;47.90
29431;DHT22;16404;49.902;10.074;2024-02-23T13:07:23;13.40;48.20
29431;DHT22;16404;49.902;10.074;2024-02-23T13:10:08;13.50;48.90
29431;DHT22;16404;49.902;10.074;2024-02-23T13:12:52;13.50;48.10
29431;DHT22;16404;49.902;10.074;2024-02-23T13:15:37;13.50;47.90
29431;DHT22;16404;49.902;10.074;2024-02-23T13:18:21;13.50;47.60
29431;DHT22;16404;49.902;10.074;2024-02-23T13:21:06;13.50;47.70
29431;DHT22;16404;49.902;10.074;2024-02-23T13:23:51;13.60;47.70
29431;DHT22;16404;49.902;10.074;2024-02-23T13:26:35;13.60;47.70
29431;DHT22;16404;49.902;10.074;2024-02-23T13:29:20;13.60;47.70
29431;DHT22;16404;49.902;10.074;2024-02-23T13:32:05;13.60;48.00
29431;DHT22;16404;49.902;10.074;2024-02-23T13:34:49;13.60;48.10
29431;DHT22;16404;49.902;10.074;2024-02-23T13:37:36;13.70;47.80
29431;DHT22;16404;49.902;10.074;2024-02-23T13:40:21;13.70;47.30
29431;DHT22;16404;49.902;10.074;2024-02-23T13:43:05;13.70;47.10
29431;DHT22;16404;49.902;10.074;2024-02-23T13:45:51;13.70;47.50
29431;DHT22;16404;49.902;10.074;2024-02-23T13:48:36;13.70;47.70
29431;DHT22;16404;49.902;10.074;2024-02-23T13:51:21;13.70;47.80
29431;DHT22;16404;49.902;10.074;2024-02-23T13:54:05;13.80;47.80
29431;DHT22;16404;49.902;10.074;2024-02-23T13:56:50;13.80;47.60
29431;DHT22;16404;49.902;10.074;2024-02-23T13:59:34;13.80;47.60
29431;DHT22;16404;49.902;10.074;2024-02-23T14:02:25;13.80;47.40
29431;DHT22;16404;49.902;10.074;2024-02-23T14:05:11;13.80;47.50
29431;DHT22;16404;49.902;10.074;2024-02-23T14:07:55;13.80;47.30
29431;DHT22;16404;49.902;10.074;2024-02-23T14:10:40;13.70;47.50
29431;DHT22;16404;49.902;10.074;2024-02-23T14:13:26;13.70;47.50
29431;DHT22;16404;49.902;10.074;2024-02-23T14:16:11;13.80;47.40
29431;DHT22;16404;49.902;10.074;2024-02-23T14:18:55;13.70;47.20
29431;DHT22;16404;49.902;10.074;2024-02-23T14:21:40;13.70;47.30
29431;DHT22;16404;49.902;10.074;2024-02-23T14:24:25;13.70;47.30
29431;DHT22;16404;49.902;10.074;2024-02-23T14:27:09;13.60;47.20
29431;DHT22;16404;49.902;10.074;2024-02-23T14:29:54;13.60;46.90
29431;DHT22;16404;49.902;10.074;2024-02-23T14:32:38;13.60;46.90
29431;DHT22;16404;49.902;10.074;2024-02-23T14:35:25;13.50;47.10
29431;DHT22;16404;49.902;10.074;2024-02-23T14:38:10;13.50;47.50
29431;DHT22;16404;49.902;10.074;2024-02-23T14:40:55;13.60;47.70
29431;DHT22;16404;49.902;10.074;2024-02-23T14:43:39;13.60;47.80
29431;DHT22;16404;49.902;10.074;2024-02-23T14:46:24;13.60;48.00
29431;DHT22;16404;49.902;10.074;2024-02-23T14:49:08;13.60;48.00
29431;DHT22;16404;49.902;10.074;2024-02-23T14:51:54;13.60;47.80
29431;DHT22;16404;49.902;10.074;2024-02-23T14:54:38;13.60;47.50
29431;DHT22;16404;49.902;10.074;2024-02-23T14:57:23;13.60;47.60
29431;DHT22;16404;49.902;10.074;2024-02-23T15:00:08;13.60;47.70
29431;DHT22;16404;49.902;10.074;2024-02-23T15:02:53;13.50;47.60
29431;DHT22;16404;49.902;10.074;2024-02-23T15:05:38;13.50;47.80
29431;DHT22;16404;49.902;10.074;2024-02-23T15:08:22;13.40;47.80
29431;DHT22;16404;49.902;10.074;2024-02-23T15:11:07;13.40;47.90
29431;DHT22;16404;49.902;10.074;2024-02-23T15:13:52;13.30;48.70
29431;DHT22;16404;49.902;10.074;2024-02-23T15:16:41;13.20;48.50
29431;DHT22;16404;49.902;10.074;2024-02-23T15:19:26;13.10;48.50
29431;DHT22;16404;49.902;10.074;2024-02-23T15:22:11;13.10;48.70
29431;DHT22;16404;49.902;10.074;2024-02-23T15:24:58;13.10;48.90
29431;DHT22;16404;49.902;10.074;2024-02-23T15:27:43;13.00;48.70
29431;DHT22;16404;49.902;10.074;2024-02-23T15:30:28;13.00;48.90
29431;DHT22;16404;49.902;10.074;2024-02-23T15:33:12;12.90;49.20
29431;DHT22;16404;49.902;10.074;2024-02-23T15:35:59;12.90;49.40
29431;DHT22;16404;49.902;10.074;2024-02-23T15:38:43;12.80;49.30
29431;DHT22;16404;49.902;10.074;2024-02-23T15:41:30;12.80;49.40
29431;DHT22;16404;49.902;10.074;2024-02-23T15:44:15;12.80;49.40
29431;DHT22;16404;49.902;10.074;2024-02-23T15:47:00;12.80;49.50
29431;DHT22;16404;49.902;10.074;2024-02-23T15:49:44;12.70;49.60
29431;DHT22;16404;49.902;10.074;2024-02-23T15:52:29;12.60;49.70
29431;DHT22;16404;49.902;10.074;2024-02-23T15:55:14;12.60;49.90
29431;DHT22;16404;49.902;10.074;2024-02-23T15:57:58;12.60;50.00
29431;DHT22;16404;49.902;10.074;2024-02-23T16:00:43;12.60;50.00
29431;DHT22;16404;49.902;10.074;2024-02-23T16:03:27;12.70;50.00
29431;DHT22;16404;49.902;10.074;2024-02-23T16:06:12;12.60;49.90
29431;DHT22;16404;49.902;10.074;2024-02-23T16:08:57;12.60;50.20
29431;DHT22;16404;49.902;10.074;2024-02-23T16:11:45;12.60;50.20
29431;DHT22;16404;49.902;10.074;2024-02-23T16:14:33;12.50;50.20
29431;DHT22;16404;49.902;10.074;2024-02-23T16:17:18;12.50;50.00
29431;DHT22;16404;49.902;10.074;2024-02-23T16:20:02;12.40;49.90
29431;DHT22;16404;49.902;10.074;2024-02-23T16:22:47;12.50;50.10
29431;DHT22;16404;49.902;10.074;2024-02-23T16:25:31;12.40;50.40
29431;DHT22;16404;49.902;10.074;2024-02-23T16:28:16;12.40;50.50
29431;DHT22;16404;49.902;10.074;2024-02-23T16:31:01;12.30;50.70
29431;DHT22;16404;49.902;10.074;2024-02-23T16:33:45;12.30;50.80
29431;DHT22;16404;49.902;10.074;2024-02-23T16:36:30;12.20;50.90
29431;DHT22;16404;49.902;10.074;2024-02-23T16:39:14;12.10;51.00
29431;DHT22;16404;49.902;10.074;2024-02-23T16:41:59;12.10;51.20
29431;DHT22;16404;49.902;10.074;2024-02-23T16:44:44;12.00;51.40
29431;DHT22;16404;49.902;10.074;2024-02-23T16:47:28;12.00;51.60
29431;DHT22;16404;49.902;10.074;2024-02-23T16:50:13;11.90;51.70
29431;DHT22;16404;49.902;10.074;2024-02-23T16:52:57;11.80;51.70
29431;DHT22;16404;49.902;10.074;2024-02-23T16:55:42;11.70;51.80
29431;DHT22;16404;49.902;10.074;2024-02-23T16:58:28;11.60;51.80
29431;DHT22;16404;49.902;10.074;2024-02-23T17:01:20;11.60;52.00
29431;DHT22;16404;49.902;10.074;2024-02-23T17:04:04;11.50;52.10
29431;DHT22;16404;49.902;10.074;2024-02-23T17:06:49;11.40;52.20
29431;DHT22;16404;49.902;10.074;2024-02-23T17:09:34;11.40;52.20
29431;DHT22;16404;49.902;10.074;2024-02-23T17:12:18;11.30;52.30